Time;durP1;ratioP1;P1;durP2;ratioP2;P2;SDS_P1;SDS_P2;PMS_P1;PMS_P2;Temp;Humidity;BMP_temperature;BMP_pressure;BME280_temperature;BME280_humidity;BME280_pressure;Samples;Min_cycle;Max_cycle;Signal;HPM_P1;HPM_P2
2023/12/08 00:01:49;;;;;;;13.63;10.23;;;4.40;99.90;;;2.93;100.00;99984.81;4989697;28;20042;-77
2023/12/08 00:04:16;;;;;;;12.57;10.88;;;4.40;9.50;;;2.92;100.00;99966.66;4973168;28;20834;-77
2023/12/08 00:06:43;;;;;;;11.35;9.80;;;4.40;99.90;;;2.91;100.00;99985.72;4991226;28;20057;-78
2023/12/08 00:09:10;;;;;;;12.63;9.90;;;4.40;14.70;;;2.89;100.00;99975.28;4988688;28;20099;-77
2023/12/08 00:11:37;;;;;;;13.15;10.40;;;4.40;99.90;;;2.92;100.00;99967.50;4987415;28;20047;-77
2023/12/08 00:14:04;;;;;;;14.07;9.85;;;4.40;99.90;;;2.86;100.00;99948.44;4986702;28;20460;-77
2023/12/08 00:16:31;;;;;;;12.30;9.75;;;4.40;99.90;;;2.90;100.00;99942.41;4987032;28;20054;-77
2023/12/08 00:18:58;;;;;;;12.13;9.55;;;4.30;1.00;;;2.81;100.00;99944.09;4986599;28;20520;-77
2023/12/08 00:21:26;;;;;;;14.32;9.68;;;4.40;1.00;;;2.85;100.00;99942.38;4992285;28;20054;-77
2023/12/08 00:23:53;;;;;;;12.98;10.43;;;4.40;1.00;;;2.89;100.00;99920.72;4987823;28;20070;-77
2023/12/08 00:26:20;;;;;;;12.73;10.38;;;4.40;99.90;;;2.96;100.00;99934.59;4993903;28;20047;-77
2023/12/08 00:28:47;;;;;;;13.90;9.23;;;4.40;1.00;;;2.66;100.00;99877.44;4998930;28;20043;-77
2023/12/08 00:31:14;;;;;;;12.02;9.88;;;4.40;1.00;;;2.74;100.00;99911.19;4993991;28;20057;-77
2023/12/08 00:33:43;;;;;;;11.43;9.13;;;4.40;99.90;;;2.90;100.00;99943.25;4990669;28;20046;-77
2023/12/08 00:36:16;;;;;;;14.05;9.85;;;4.30;53.80;;;2.77;100.00;99912.91;4992465;28;20050;-77
2023/12/08 00:38:47;;;;;;;11.15;8.30;;;4.30;99.90;;;2.98;100.00;99948.44;5000202;28;20101;-77
2023/12/08 00:41:14;;;;;;;12.15;9.60;;;5.80;55.20;;;2.72;100.00;99897.31;4992263;28;20047;-77
2023/12/08 00:43:41;;;;;;;13.27;10.18;;;4.40;1.00;;;2.95;100.00;99930.25;4991747;28;20073;-77
2023/12/08 00:46:10;;;;;;;13.07;10.85;;;4.40;99.90;;;2.82;100.00;99903.41;4975553;28;20077;-78
2023/12/08 00:48:37;;;;;;;13.50;10.30;;;4.40;99.90;;;2.93;100.00;99925.03;4976474;28;20068;-77
2023/12/08 00:51:06;;;;;;;11.32;9.40;;;4.40;1.00;;;3.02;100.00;99924.19;4991742;28;20578;-78
2023/12/08 00:53:33;;;;;;;14.13;9.48;;;4.40;99.90;;;3.00;100.00;99912.06;5001053;28;20057;-77
2023/12/08 00:56:00;;;;;;;14.18;10.02;;;4.50;1.00;;;2.78;100.00;99873.97;4991474;28;20047;-77
2023/12/08 00:58:27;;;;;;;12.50;9.20;;;5.30;99.90;;;2.89;100.00;99902.53;4991058;28;20145;-77
2023/12/08 01:00:54;;;;;;;12.52;9.95;;;4.50;99.90;;;3.00;100.00;99920.72;4975026;28;20141;-77
2023/12/08 01:03:21;;;;;;;13.07;9.60;;;4.40;99.90;;;2.96;100.00;99919.00;4990050;28;20046;-77
2023/12/08 01:05:49;;;;;;;13.68;9.68;;;4.50;1.00;;;2.90;100.00;99900.81;4990166;28;20046;-77
2023/12/08 01:08:16;;;;;;;12.23;9.15;;;4.60;1.00;;;2.86;100.00;99888.66;4990466;28;20047;-77
2023/12/08 01:10:43;;;;;;;11.52;10.20;;;4.40;1.00;;;2.92;100.00;99922.47;4990201;28;20054;-77
2023/12/08 01:13:10;;;;;;;11.23;8.65;;;4.40;1.00;;;2.81;100.00;99886.94;4989396;28;20101;-77
2023/12/08 01:15:37;;;;;;;11.88;9.02;;;4.40;1.00;;;3.00;100.00;99905.13;4987668;28;20051;-78
2023/12/08 01:18:04;;;;;;;10.57;9.48;;;4.70;99.90;;;3.07;100.00;99893.88;4988915;28;20051;-78
2023/12/08 01:20:31;;;;;;;12.77;10.32;;;4.50;1.00;;;3.08;100.00;99890.41;4988961;28;20180;-77
2023/12/08 01:22:59;;;;;;;12.05;9.75;;;5.00;99.90;;;3.00;100.00;99878.28;4974066;28;20055;-77
2023/12/08 01:25:26;;;;;;;10.57;8.93;;;4.70;2.60;;;2.87;100.00;99869.59;4971301;28;20057;-78
2023/12/08 01:27:55;;;;;;;12.07;9.00;;;4.50;1.00;;;3.07;100.00;99908.59;4988465;28;20113;-77
2023/12/08 01:30:22;;;;;;;10.80;8.95;;;4.50;99.90;;;2.96;100.00;99887.81;4972576;28;20043;-77
2023/12/08 01:32:49;;;;;;;26.05;11.45;;;4.50;1.00;;;2.93;100.00;99886.06;4989000;28;20039;-78
2023/12/08 01:35:16;;;;;;;12.10;9.02;;;4.50;99.90;;;2.79;100.00;99872.22;4987212;28;20072;-78
2023/12/08 01:37:43;;;;;;;13.57;11.15;;;4.50;90.90;;;3.08;100.00;99920.72;4988450;28;20129;-78
2023/12/08 01:40:11;;;;;;;12.77;9.48;;;4.50;1.00;;;2.81;100.00;99878.25;4987516;28;20565;-77
2023/12/08 01:42:40;;;;;;;13.75;9.82;;;4.50;19.20;;;2.95;100.00;99912.06;4974063;28;20035;-78
2023/12/08 01:45:08;;;;;;;12.20;9.65;;;4.50;1.00;;;2.90;100.00;99890.41;4977425;28;20142;-77
2023/12/08 01:47:36;;;;;;;11.90;9.63;;;4.50;1.00;;;3.06;100.00;99917.25;4986415;28;20046;-77
2023/12/08 01:50:04;;;;;;;12.80;9.35;;;4.50;99.90;;;2.68;100.00;99865.28;4970171;28;20047;-77
2023/12/08 01:52:32;;;;;;;12.15;10.30;;;4.50;99.90;;;3.01;100.00;99927.66;4994076;28;20116;-77
2023/12/08 01:54:59;;;;;;;10.70;9.00;;;4.70;1.00;;;2.84;100.00;99918.13;4979244;28;20122;-77
2023/12/08 01:57:26;;;;;;;11.57;9.32;;;4.50;99.90;;;3.09;100.00;99941.53;4976036;28;20160;-77
2023/12/08 01:59:55;;;;;;;12.05;9.70;;;4.50;27.90;;;2.66;100.00;99863.56;4980682;28;20520;-77
2023/12/08 02:02:24;;;;;;;10.70;9.13;;;4.50;1.00;;;2.88;100.00;99898.19;4985158;28;20051;-77
2023/12/08 02:04:56;;;;;;;14.77;10.20;;;4.50;99.90;;;3.14;100.00;99940.66;4983646;28;20045;-76
2023/12/08 02:07:25;;;;;;;11.63;9.65;;;4.50;1.00;;;3.15;100.00;99950.19;4984574;28;20417;-76
2023/12/08 02:09:53;;;;;;;13.07;9.63;;;4.50;99.90;;;3.04;100.00;99925.03;4999470;28;20130;-77
2023/12/08 02:12:20;;;;;;;14.73;9.88;;;4.50;99.90;;;3.07;100.00;99932.88;4968721;28;20050;-77
2023/12/08 02:14:51;;;;;;;11.80;10.25;;;4.50;1.00;;;3.13;100.00;99952.78;4983796;28;20082;-77
2023/12/08 02:17:26;;;;;;;11.02;8.57;;;4.50;99.90;;;3.10;100.00;99931.97;4984481;28;20061;-76
2023/12/08 02:19:55;;;;;;;14.82;10.52;;;4.60;1.00;;;2.95;100.00;99905.13;4984849;28;20039;-76
2023/12/08 02:22:23;;;;;;;13.02;10.07;;;4.50;57.90;;;3.07;100.00;99922.47;4984122;28;20042;-76
2023/12/08 02:24:51;;;;;;;12.13;10.38;;;4.50;99.90;;;3.06;100.00;99930.25;4983516;28;20121;-76
2023/12/08 02:27:18;;;;;;;12.85;9.93;;;4.50;25.00;;;3.01;100.00;99926.78;4984339;28;20070;-76
2023/12/08 02:29:45;;;;;;;11.57;9.68;;;4.50;1.00;;;3.03;100.00;99936.31;4968410;28;20441;-77
2023/12/08 02:32:15;;;;;;;12.63;10.07;;;4.50;93.00;;;3.11;100.00;99944.97;4976915;28;20565;-76
2023/12/08 02:34:46;;;;;;;14.27;11.05;;;4.50;99.90;;;3.02;100.00;99939.78;4961009;28;20497;-76
2023/12/08 02:37:17;;;;;;;15.05;10.13;;;5.00;2.60;;;3.01;100.00;99917.25;4968204;28;20453;-76
2023/12/08 02:39:48;;;;;;;12.43;9.57;;;4.50;99.90;;;3.05;100.00;99916.41;4975707;28;20078;-76
2023/12/08 02:42:17;;;;;;;12.15;9.35;;;4.50;99.90;;;3.06;100.00;99940.66;4984296;28;20054;-76
2023/12/08 02:44:47;;;;;;;11.30;9.18;;;4.50;1.00;;;3.02;100.00;99920.72;4983809;28;20066;-76
2023/12/08 02:47:14;;;;;;;14.98;11.40;;;4.60;99.90;;;3.01;100.00;99921.59;4984420;28;20053;-76
2023/12/08 02:49:41;;;;;;;13.38;9.60;;;4.50;1.00;;;2.92;100.00;99918.13;4976323;28;20066;-76
2023/12/08 02:52:09;;;;;;;14.27;10.93;;;4.50;99.90;;;3.04;100.00;99919.00;4984761;28;20055;-76
2023/12/08 02:54:36;;;;;;;13.10;10.00;;;4.50;99.90;;;3.00;100.00;99918.13;4998867;28;20133;-76
2023/12/08 02:57:03;;;;;;;12.88;9.98;;;4.50;16.10;;;2.88;100.00;99895.59;4966987;28;20061;-76
2023/12/08 02:59:31;;;;;;;12.90;10.18;;;4.50;99.90;;;3.05;100.00;99905.13;4983540;28;20683;-76
2023/12/08 03:01:58;;;;;;;12.52;10.20;;;4.50;99.90;;;3.00;100.00;99886.94;4983478;28;20050;-76
2023/12/08 03:04:24;;;;;;;11.75;9.48;;;4.50;1.00;;;3.07;100.00;99922.47;4966417;28;20050;-76
2023/12/08 03:06:52;;;;;;;10.98;9.10;;;4.50;99.90;;;2.89;100.00;99896.44;4983622;28;20042;-77
2023/12/08 03:09:18;;;;;;;13.35;9.73;;;4.90;99.90;;;2.77;100.00;99854.03;4994546;28;20120;-76
2023/12/08 03:11:45;;;;;;;11.40;9.02;;;4.50;99.90;;;2.97;100.00;99884.34;4984030;28;20047;-77
2023/12/08 03:14:12;;;;;;;13.73;9.68;;;4.50;39.20;;;2.64;100.00;99819.38;4966799;28;20482;-77
2023/12/08 03:16:40;;;;;;;14.50;10.18;;;4.50;1.00;;;3.00;100.00;99873.09;4992073;28;20131;-76
2023/12/08 03:19:06;;;;;;;14.35;10.35;;;4.40;90.40;;;2.79;100.00;99830.63;4966789;28;20060;-77
2023/12/08 03:21:34;;;;;;;13.13;10.23;;;4.50;35.70;;;2.92;100.00;99849.69;4965719;28;20055;-77
2023/12/08 03:24:01;;;;;;;12.20;9.20;;;4.50;1.00;;;3.05;100.00;99867.03;4978198;28;20729;-77
2023/12/08 03:26:28;;;;;;;11.93;10.30;;;4.50;25.30;;;3.02;100.00;99871.34;4960773;28;20046;-77
2023/12/08 03:28:55;;;;;;;12.68;10.30;;;4.40;1.00;;;2.97;100.00;99847.94;4983728;28;20453;-77
2023/12/08 03:31:29;;;;;;;12.82;10.32;;;4.50;99.90;;;2.90;100.00;99828.06;4951368;28;20047;-77
2023/12/08 03:33:56;;;;;;;13.20;9.63;;;4.50;99.90;;;2.77;100.00;99828.06;4986013;28;20092;-77
2023/12/08 03:36:23;;;;;;;11.57;9.55;;;4.50;1.00;;;2.51;100.00;99817.69;4994515;28;20054;-77
2023/12/08 03:38:50;;;;;;;13.65;9.70;;;4.40;1.00;;;2.97;100.00;99887.81;4992846;28;20042;-77
2023/12/08 03:41:18;;;;;;;12.55;10.10;;;4.30;1.00;;;2.86;100.00;99875.66;4967307;28;20528;-77
2023/12/08 03:43:45;;;;;;;10.90;9.57;;;4.40;1.00;;;2.88;100.00;99851.44;4967017;28;20051;-77
2023/12/08 03:46:12;;;;;;;12.63;10.07;;;4.40;36.60;;;2.98;100.00;99852.28;4982658;28;20050;-77
2023/12/08 03:48:39;;;;;;;12.40;9.60;;;4.30;99.90;;;2.77;100.00;99798.59;4999263;28;20046;-77
2023/12/08 03:51:07;;;;;;;13.77;11.27;;;4.40;99.90;;;2.97;100.00;99846.22;4994869;28;20823;-76
2023/12/08 03:53:34;;;;;;;13.38;10.80;;;4.40;1.00;;;2.84;100.00;99827.16;4983666;28;20081;-77
2023/12/08 03:56:01;;;;;;;10.93;9.48;;;4.40;1.00;;;2.79;100.00;99821.13;4968035;28;20711;-77
2023/12/08 03:58:28;;;;;;;13.07;10.82;;;4.40;99.90;;;3.00;100.00;99855.75;4984595;28;20038;-77
2023/12/08 04:00:55;;;;;;;13.65;10.30;;;4.40;99.90;;;2.89;100.00;99832.38;4983901;28;20050;-77
2023/12/08 04:03:22;;;;;;;13.32;10.52;;;4.40;99.90;;;3.07;100.00;99875.69;4986050;28;20482;-77
2023/12/08 04:05:50;;;;;;;14.27;9.68;;;4.50;1.00;;;2.96;100.00;99844.47;4970403;28;20046;-77
2023/12/08 04:08:17;;;;;;;12.82;9.77;;;4.50;1.00;;;2.93;100.00;99841.88;4987125;28;20093;-77
2023/12/08 04:10:44;;;;;;;17.20;11.00;;;4.50;99.90;;;3.07;100.00;99854.88;4972227;28;20085;-76
2023/12/08 04:13:11;;;;;;;12.52;9.25;;;4.50;1.00;;;3.06;100.00;99857.47;4987085;28;20151;-77
2023/12/08 04:15:39;;;;;;;14.65;11.98;;;4.50;1.00;;;2.88;100.00;99830.63;4978238;28;20050;-77
2023/12/08 04:18:06;;;;;;;14.50;11.20;;;4.40;99.90;;;2.97;100.00;99855.75;4986442;28;20043;-77
2023/12/08 04:20:33;;;;;;;12.57;10.63;;;4.50;1.00;;;2.95;100.00;99849.69;4973240;28;20169;-76
2023/12/08 04:23:05;;;;;;;14.77;11.02;;;4.50;99.90;;;2.97;100.00;99837.56;4970895;28;20417;-76
2023/12/08 04:25:32;;;;;;;13.55;10.88;;;4.50;1.00;;;3.01;100.00;99843.63;4985441;28;20039;-77
2023/12/08 04:27:59;;;;;;;14.07;11.75;;;4.50;99.10;;;2.88;100.00;99820.25;4986412;28;20452;-77
2023/12/08 04:30:26;;;;;;;14.23;10.95;;;4.40;99.90;;;3.08;100.00;99858.31;4986572;28;20046;-77
2023/12/08 04:32:53;;;;;;;16.85;12.57;;;4.50;99.90;;;2.87;100.00;99841.91;4986060;28;20055;-77
2023/12/08 04:35:21;;;;;;;22.35;17.52;;;4.50;99.90;;;3.00;100.00;99868.72;4996180;28;20043;-77
2023/12/08 04:37:53;;;;;;;20.63;17.88;;;4.40;99.90;;;2.92;100.00;99860.09;4970304;28;20158;-77
2023/12/08 04:40:20;;;;;;;82.05;63.08;;;4.50;99.90;;;2.93;100.00;99854.88;4999605;28;20090;-76
2023/12/08 04:42:47;;;;;;;60.00;42.38;;;4.40;1.00;;;2.90;100.00;99854.03;4995256;28;20043;-76
2023/12/08 04:45:14;;;;;;;74.95;52.42;;;4.40;1.00;;;2.94;100.00;99864.41;4985309;28;20070;-77
2023/12/08 04:47:41;;;;;;;117.55;76.70;;;4.40;15.20;;;2.97;100.00;99872.22;4985180;28;20046;-77
2023/12/08 04:50:09;;;;;;;102.07;66.18;;;4.40;99.90;;;3.07;100.00;99877.41;4994433;28;20047;-76
2023/12/08 04:52:36;;;;;;;123.47;82.22;;;4.40;99.90;;;2.95;100.00;99853.13;4987111;28;20046;-76
2023/12/08 04:55:04;;;;;;;96.03;70.72;;;4.50;99.90;;;3.03;100.00;99852.28;4968867;28;20062;-76
2023/12/08 04:57:34;;;;;;;65.55;49.33;;;4.50;1.00;;;2.96;100.00;99844.47;4968912;28;20137;-77
2023/12/08 05:00:03;;;;;;;32.50;24.48;;;4.50;99.90;;;2.99;100.00;99843.63;4985650;28;20145;-76
2023/12/08 05:02:30;;;;;;;22.92;16.73;;;4.50;19.10;;;2.84;100.00;99815.94;4993613;28;20086;-77
2023/12/08 05:04:57;;;;;;;19.58;15.52;;;4.50;78.30;;;3.06;100.00;99845.34;4968680;28;20043;-76
2023/12/08 05:07:24;;;;;;;15.95;12.82;;;4.50;99.90;;;3.04;100.00;99841.00;4967458;28;22625;-77
2023/12/08 05:09:51;;;;;;;14.38;11.43;;;4.60;99.90;;;3.08;100.00;99850.53;4984173;28;20089;-77
2023/12/08 05:12:18;;;;;;;14.43;11.13;;;4.50;91.20;;;3.03;100.00;99853.13;4983122;28;20142;-76
2023/12/08 05:14:45;;;;;;;14.38;11.13;;;4.50;99.90;;;3.03;100.00;99863.53;4967873;28;20074;-76
2023/12/08 05:17:12;;;;;;;13.38;10.77;;;4.50;99.90;;;2.84;100.00;99828.91;4969096;28;20058;-77
2023/12/08 05:19:39;;;;;;;14.68;11.35;;;4.60;99.90;;;2.91;100.00;99840.19;4988860;28;20051;-77
2023/12/08 05:22:06;;;;;;;14.75;11.35;;;4.50;99.90;;;2.94;100.00;99856.59;4973793;28;20055;-77
2023/12/08 05:24:33;;;;;;;15.65;12.63;;;4.50;99.90;;;3.01;100.00;99873.06;4973648;28;20051;-77
2023/12/08 05:27:02;;;;;;;17.92;12.20;;;4.40;99.90;;;3.09;100.00;99884.34;4974595;28;20505;-77
2023/12/08 05:29:29;;;;;;;12.05;10.77;;;4.50;99.90;;;2.88;100.00;99846.22;4984433;28;20165;-77
2023/12/08 05:31:56;;;;;;;16.77;12.38;;;4.50;99.90;;;2.98;100.00;99868.75;4989489;28;20425;-78
2023/12/08 05:34:23;;;;;;;15.07;12.68;;;5.10;99.90;;;2.47;100.00;99803.81;4972563;28;20054;-77
2023/12/08 05:36:50;;;;;;;16.38;12.90;;;4.90;99.90;;;2.33;100.00;99774.38;4969560;28;20061;-78
2023/12/08 05:39:17;;;;;;;16.30;12.43;;;5.00;99.90;;;2.30;100.00;99761.41;4977277;28;20365;-78
2023/12/08 05:41:46;;;;;;;17.75;11.88;;;4.50;1.00;;;2.97;100.00;99868.75;4992085;28;20596;-78
2023/12/08 05:44:15;;;;;;;15.45;12.73;;;5.00;99.90;;;3.05;100.00;99892.13;4990824;28;20074;-78
2023/12/08 05:46:42;;;;;;;14.48;12.25;;;4.50;1.00;;;2.81;100.00;99850.56;4992009;28;20066;-78
2023/12/08 05:49:09;;;;;;;13.90;11.23;;;4.50;1.00;;;2.79;100.00;99849.69;4976220;28;20046;-78
2023/12/08 05:51:37;;;;;;;14.38;11.70;;;4.50;1.00;;;2.99;100.00;99887.78;4983017;28;20074;-77
2023/12/08 05:54:04;;;;;;;14.88;12.65;;;4.50;99.90;;;2.34;100.00;99777.00;4991335;28;20046;-78
2023/12/08 05:56:31;;;;;;;15.70;12.20;;;5.60;99.90;;;2.93;100.00;99883.47;4991719;28;20047;-78
2023/12/08 05:58:58;;;;;;;16.45;13.77;;;5.60;1.00;;;3.01;100.00;99893.84;4976024;28;20058;-77
2023/12/08 06:01:26;;;;;;;17.70;13.40;;;4.40;1.00;;;2.73;100.00;99833.25;4976444;28;20051;-77
2023/12/08 06:03:53;;;;;;;17.15;14.23;;;4.50;1.00;;;2.83;100.00;99854.03;4974583;28;20536;-78
2023/12/08 06:06:21;;;;;;;16.52;13.23;;;4.50;1.00;;;2.23;100.00;99748.41;4975109;28;20054;-77
2023/12/08 06:08:48;;;;;;;13.50;10.88;;;4.50;1.00;;;2.61;100.00;99819.38;4994285;28;20045;-78
2023/12/08 06:11:15;;;;;;;16.52;13.07;;;5.30;1.00;;;3.02;100.00;99864.41;4993898;28;20086;-78
2023/12/08 06:13:42;;;;;;;16.23;12.07;;;5.00;1.00;;;2.53;100.00;99806.41;4979440;28;20116;-77
2023/12/08 06:16:10;;;;;;;16.58;12.30;;;6.00;1.00;;;2.71;100.00;99824.59;4985113;28;20137;-77
2023/12/08 06:18:37;;;;;;;17.38;13.52;;;4.40;1.00;;;2.64;100.00;99808.16;4979271;28;20663;-78
2023/12/08 06:21:04;;;;;;;15.98;12.75;;;4.40;1.00;;;2.76;100.00;99830.63;4992998;28;20047;-78
2023/12/08 06:23:31;;;;;;;17.35;13.60;;;4.40;1.00;;;2.94;100.00;99868.75;4976679;28;20142;-79
2023/12/08 06:25:58;;;;;;;16.90;12.35;;;4.40;1.00;;;2.79;100.00;99846.22;4998091;28;20042;-79
2023/12/08 06:28:25;;;;;;;18.98;13.57;;;4.40;1.00;;;2.94;100.00;99873.94;4976572;28;20346;-79
2023/12/08 06:30:52;;;;;;;21.08;15.60;;;4.40;1.00;;;2.91;100.00;99872.22;4976966;28;20137;-79
2023/12/08 06:33:19;;;;;;;17.73;14.48;;;4.40;1.00;;;2.83;100.00;99861.81;4991377;28;20054;-78
2023/12/08 06:35:47;;;;;;;23.42;20.67;;;5.20;1.00;;;2.71;100.00;99858.38;4989007;28;20050;-77
2023/12/08 06:38:14;;;;;;;25.05;22.63;;;4.60;1.00;;;2.83;100.00;99866.16;4958040;28;20058;-78
2023/12/08 06:40:41;;;;;;;22.73;18.88;;;4.50;1.00;;;2.97;100.00;99880.03;4992617;28;20537;-78
2023/12/08 06:43:08;;;;;;;32.40;29.13;;;4.40;1.00;;;2.65;100.00;99815.94;4992570;28;20050;-79
2023/12/08 06:45:35;;;;;;;24.58;21.50;;;4.40;1.00;;;2.78;100.00;99850.56;4991713;28;20082;-79
2023/12/08 06:48:04;;;;;;;21.65;17.25;;;4.80;1.00;;;2.80;100.00;99859.22;4974558;28;20045;-78
2023/12/08 06:50:32;;;;;;;22.48;17.80;;;4.40;1.00;;;2.88;100.00;99869.63;4989793;28;20078;-78
2023/12/08 06:52:59;;;;;;;23.17;16.20;;;4.40;1.00;;;2.31;100.00;99783.91;4986438;28;20142;-77
2023/12/08 06:55:26;;;;;;;19.40;15.30;;;4.40;1.00;;;2.91;100.00;99885.19;4969187;28;20504;-78
2023/12/08 06:57:53;;;;;;;35.08;23.35;;;4.40;1.00;;;3.02;100.00;99886.94;4952899;28;20141;-75
2023/12/08 07:00:21;;;;;;;34.65;23.75;;;4.40;1.00;;;2.71;100.00;99846.22;4984455;28;20056;-77
2023/12/08 07:02:48;;;;;;;30.80;21.60;;;4.40;1.00;;;2.98;100.00;99894.75;4969317;28;20051;-76
2023/12/08 07:05:19;;;;;;;29.23;21.08;;;4.40;1.00;;;3.00;100.00;99899.06;4983996;28;20077;-76
2023/12/08 07:07:48;;;;;;;25.52;18.60;;;4.50;1.00;;;2.97;100.00;99886.94;4966944;28;20038;-76
2023/12/08 07:10:15;;;;;;;21.63;16.65;;;4.50;1.00;;;2.84;100.00;99867.91;4969447;28;20461;-76
2023/12/08 07:12:43;;;;;;;19.60;15.07;;;4.50;1.00;;;3.04;100.00;99896.44;4985495;28;20053;-77
2023/12/08 07:15:11;;;;;;;21.98;15.95;;;4.40;1.00;;;2.82;100.00;99870.47;4966644;28;20058;-77
2023/12/08 07:17:38;;;;;;;22.02;17.33;;;4.70;1.00;;;2.94;100.00;99886.94;4971156;28;20055;-77
2023/12/08 07:20:10;;;;;;;21.95;16.80;;;4.50;1.00;;;2.99;100.00;99898.19;4983667;28;20078;-77
2023/12/08 07:22:37;;;;;;;24.70;18.88;;;4.50;1.00;;;3.00;100.00;99893.88;4970025;28;20129;-78
2023/12/08 07:25:05;;;;;;;26.90;18.83;;;4.50;1.00;;;2.77;100.00;99858.34;4987519;28;20073;-77
2023/12/08 07:27:32;;;;;;;23.20;19.42;;;4.50;1.00;;;2.46;100.00;99819.38;4987270;28;20082;-77
2023/12/08 07:30:00;;;;;;;25.45;17.77;;;4.50;1.00;;;2.86;100.00;99879.16;4985423;28;20043;-77
2023/12/08 07:32:27;;;;;;;26.40;17.63;;;4.50;1.00;;;3.04;100.00;99913.78;4961813;28;20117;-77
2023/12/08 07:34:54;;;;;;;18.85;14.35;;;4.50;1.00;;;2.89;100.00;99896.44;4974159;28;20055;-76
2023/12/08 07:37:22;;;;;;;21.65;16.35;;;4.70;1.00;;;2.88;100.00;99897.31;4987024;28;20661;-77
2023/12/08 07:39:49;;;;;;;21.30;16.00;;;4.50;1.00;;;2.70;100.00;99870.47;4977063;28;20042;-77
2023/12/08 07:42:16;;;;;;;24.33;17.63;;;4.40;1.00;;;2.92;100.00;99904.28;4982585;28;20101;-76
2023/12/08 07:44:45;;;;;;;22.60;17.73;;;4.50;1.00;;;2.89;100.00;99892.13;4984449;28;20146;-77
2023/12/08 07:47:13;;;;;;;24.58;18.65;;;5.10;1.00;;;2.67;100.00;99866.16;4985436;28;21213;-79
2023/12/08 07:49:40;;;;;;;22.73;17.27;;;6.20;1.00;;;2.90;100.00;99891.28;4971981;28;20097;-79
2023/12/08 07:52:07;;;;;;;21.48;16.08;;;5.40;1.00;;;2.37;100.00;99804.66;4972628;28;20062;-79
2023/12/08 07:54:35;;;;;;;23.10;16.92;;;4.50;1.00;;;2.88;100.00;99873.94;4976253;28;20057;-79
2023/12/08 07:57:02;;;;;;;26.83;17.92;;;6.30;1.00;;;2.51;100.00;99830.66;4993512;28;20047;-80
2023/12/08 07:59:30;;;;;;;22.00;16.60;;;4.50;1.00;;;2.95;100.00;99906.88;4985887;28;20501;-78
2023/12/08 08:01:57;;;;;;;38.05;25.20;;;5.60;1.00;;;2.61;100.00;99854.91;4991690;28;20070;-79
2023/12/08 08:04:24;;;;;;;31.00;21.98;;;4.50;1.00;;;2.40;100.00;99821.13;4990381;28;20138;-79
2023/12/08 08:06:51;;;;;;;25.50;20.33;;;5.50;1.00;;;2.71;100.00;99868.75;4990874;28;20046;-78
2023/12/08 08:09:19;;;;;;;25.60;18.98;;;4.50;1.00;;;3.00;100.00;99907.72;4976187;28;20053;-79
2023/12/08 08:11:46;;;;;;;26.75;19.10;;;4.60;1.00;;;2.83;100.00;99885.19;4976451;28;20054;-79
2023/12/08 08:14:13;;;;;;;25.88;17.83;;;6.00;1.00;;;3.06;100.00;99936.34;4976158;28;20412;-79
2023/12/08 08:16:40;;;;;;;19.98;16.17;;;6.10;1.00;;;2.46;100.00;99824.59;4969882;28;20058;-79
2023/12/08 08:19:08;;;;;;;27.92;20.15;;;5.40;1.00;;;2.95;100.00;99906.88;4984616;28;20417;-78
2023/12/08 08:21:35;;;;;;;23.80;17.52;;;4.60;1.00;;;3.05;100.00;99924.22;4972179;28;20477;-79
2023/12/08 08:24:03;;;;;;;24.65;18.65;;;4.30;1.00;;;2.48;100.00;99839.31;4973150;28;20158;-78
2023/12/08 08:26:30;;;;;;;27.30;19.45;;;4.60;1.00;;;3.01;100.00;99908.59;4961873;28;20492;-78
2023/12/08 08:28:57;;;;;;;26.85;20.10;;;5.50;1.00;;;3.16;100.00;99937.19;4991715;28;20049;-79
2023/12/08 08:31:24;;;;;;;25.95;20.05;;;4.60;1.00;;;3.09;100.00;99931.13;4987473;28;20066;-78
2023/12/08 08:33:51;;;;;;;28.25;21.10;;;5.80;1.00;;;3.12;100.00;99933.72;4980128;28;20063;-79
2023/12/08 08:36:19;;;;;;;29.38;21.20;;;4.70;1.00;;;2.49;100.00;99841.03;4992029;28;20050;-79
2023/12/08 08:38:46;;;;;;;25.20;18.60;;;5.60;1.00;;;2.36;100.00;99806.41;4992103;28;20071;-79
2023/12/08 08:41:13;;;;;;;31.38;22.00;;;4.60;1.00;;;3.19;100.00;99950.19;4991036;28;20624;-79
2023/12/08 08:43:42;;;;;;;34.15;24.70;;;4.60;3.50;;;2.99;100.00;99931.97;4993813;28;20047;-79
2023/12/08 08:46:09;;;;;;;31.75;22.60;;;4.60;3.00;;;3.13;100.00;99929.41;4962117;28;20079;-79
2023/12/08 08:48:36;;;;;;;29.45;22.27;;;4.60;5.50;;;3.09;100.00;99922.44;4979693;28;20050;-78
2023/12/08 08:51:04;;;;;;;30.30;22.38;;;5.50;3.10;;;2.95;100.00;99896.47;4997347;28;20057;-79
2023/12/08 08:53:31;;;;;;;32.22;23.90;;;4.60;5.90;;;2.63;100.00;99850.56;4980229;28;20107;-79
2023/12/08 08:55:58;;;;;;;28.70;21.65;;;4.60;7.90;;;2.65;100.00;99867.91;4967878;28;20127;-79
2023/12/08 08:58:26;;;;;;;29.42;21.08;;;5.20;8.80;;;3.17;100.00;99945.84;4997851;28;20047;-80
2023/12/08 09:00:53;;;;;;;26.75;20.60;;;5.50;10.10;;;2.98;100.00;99896.47;4997388;28;20046;-79
2023/12/08 09:03:26;;;;;;;30.13;20.92;;;4.60;11.30;;;2.16;100.00;99777.84;4981748;28;20046;-79
2023/12/08 09:05:54;;;;;;;27.67;20.13;;;4.70;12.00;;;2.34;100.00;99817.66;4997416;28;20039;-79
2023/12/08 09:08:22;;;;;;;28.65;20.15;;;4.70;11.50;;;3.12;100.00;99925.91;4981337;28;20057;-79
2023/12/08 09:10:50;;;;;;;29.38;20.65;;;4.60;11.70;;;2.95;100.00;99925.06;4982818;28;20043;-79
2023/12/08 09:13:22;;;;;;;27.23;20.52;;;4.60;13.70;;;2.23;100.00;99786.50;4983380;28;20047;-79
2023/12/08 09:15:49;;;;;;;34.20;25.30;;;5.60;17.60;;;2.59;100.00;99860.09;4991124;28;20039;-79
2023/12/08 09:18:16;;;;;;;62.15;40.33;;;5.30;17.40;;;2.59;100.00;99841.91;4992394;28;20394;-79
2023/12/08 09:20:45;;;;;;;55.92;39.60;;;4.50;18.70;;;2.84;100.00;99886.09;4994243;28;20069;-78
2023/12/08 09:23:12;;;;;;;40.22;27.92;;;6.10;18.90;;;3.26;100.00;99945.84;4991994;28;20150;-80
2023/12/08 09:25:39;;;;;;;33.83;23.73;;;4.70;21.80;;;2.55;100.00;99811.63;4976334;28;20035;-80
2023/12/08 09:28:06;;;;;;;25.75;20.00;;;4.70;22.30;;;3.22;100.00;99924.19;4991109;28;20051;-79
2023/12/08 09:30:34;;;;;;;28.90;20.23;;;4.70;22.20;;;3.32;100.00;99942.38;4994800;28;20145;-79
2023/12/08 09:33:04;;;;;;;27.42;20.35;;;4.90;21.40;;;3.35;100.00;99948.41;4980514;28;20620;-80
2023/12/08 09:35:32;;;;;;;29.60;20.40;;;4.80;21.40;;;2.64;100.00;99828.94;4978043;28;20059;-80
2023/12/08 09:38:01;;;;;;;26.95;18.88;;;5.50;21.00;;;3.29;100.00;99935.44;4978715;28;20051;-80
2023/12/08 09:40:29;;;;;;;30.83;22.63;;;4.90;22.80;;;3.39;100.00;99959.69;4990316;28;20101;-79
2023/12/08 09:43:02;;;;;;;26.38;19.38;;;4.80;19.40;;;3.01;100.00;99893.00;4994326;28;20043;-79
2023/12/08 09:45:29;;;;;;;28.85;20.10;;;4.90;21.00;;;3.29;100.00;99942.38;4994685;28;20119;-78
2023/12/08 09:47:58;;;;;;;24.40;18.38;;;4.90;17.50;;;3.02;100.00;99900.78;4978257;28;20081;-79
2023/12/08 09:50:27;;;;;;;29.17;21.05;;;4.90;19.20;;;3.13;100.00;99916.41;4993565;28;20049;-81
2023/12/08 09:52:54;;;;;;;29.67;21.40;;;4.90;21.40;;;2.97;100.00;99866.16;4994126;28;20042;-79
2023/12/08 09:55:23;;;;;;;29.70;22.05;;;4.90;19.50;;;2.94;100.00;99858.34;4990102;28;20054;-79
2023/12/08 09:57:52;;;;;;;31.20;23.38;;;5.00;19.20;;;3.47;100.00;99955.38;4957849;28;20050;-80
2023/12/08 10:00:21;;;;;;;27.20;21.30;;;6.40;20.60;;;2.98;100.00;99857.47;4973169;28;20394;-80
2023/12/08 10:02:51;;;;;;;25.50;19.50;;;5.00;22.40;;;2.80;100.00;99841.03;4973555;28;20054;-80
2023/12/08 10:05:23;;;;;;;25.02;19.60;;;5.10;23.50;;;2.95;100.00;99867.88;4980407;28;20108;-80
2023/12/08 10:07:54;;;;;;;31.27;20.77;;;5.00;23.40;;;2.96;100.00;99869.63;4988510;28;20671;-79
2023/12/08 10:10:24;;;;;;;28.70;20.35;;;5.00;22.60;;;3.48;100.00;99940.59;4985523;28;20047;-80
2023/12/08 10:12:52;;;;;;;29.35;21.23;;;5.10;23.70;;;3.54;100.00;99931.06;4972778;28;20046;-79
2023/12/08 10:15:21;;;;;;;24.80;19.48;;;5.10;25.40;;;3.12;100.00;99871.31;4957023;28;20043;-78
2023/12/08 10:17:51;;;;;;;29.13;19.80;;;5.00;23.60;;;3.04;100.00;99839.25;4989377;28;20513;-79
2023/12/08 10:20:21;;;;;;;25.17;19.17;;;5.20;26.50;;;3.43;100.00;99898.13;4989457;28;20520;-78